sensor_id;sensor_type;location;lat;lon;timestamp;temperature;humidity
72814;DHT22;60945;48.516;-2.768;2023-05-10T00:02:07;11.80;79.00
72814;DHT22;60945;48.516;-2.768;2023-05-10T00:04:33;11.80;80.30
72814;DHT22;60945;48.516;-2.768;2023-05-10T00:06:59;11.80;80.50
72814;DHT22;60945;48.516;-2.768;2023-05-10T00:09:24;12.00;79.60
72814;DHT22;60945;48.516;-2.768;2023-05-10T00:11:50;12.00;80.20
72814;DHT22;60945;48.516;-2.768;2023-05-10T00:14:16;12.00;78.90
72814;DHT22;60945;48.516;-2.768;2023-05-10T00:16:42;12.00;79.70
72814;DHT22;60945;48.516;-2.768;2023-05-10T00:19:07;11.90;79.80
72814;DHT22;60945;48.516;-2.768;2023-05-10T00:21:33;11.90;80.20
72814;DHT22;60945;48.516;-2.768;2023-05-10T00:23:59;11.90;79.90
72814;DHT22;60945;48.516;-2.768;2023-05-10T00:26:25;11.80;80.10
72814;DHT22;60945;48.516;-2.768;2023-05-10T00:28:51;11.90;79.40
72814;DHT22;60945;48.516;-2.768;2023-05-10T00:31:16;11.90;79.10
72814;DHT22;60945;48.516;-2.768;2023-05-10T00:33:42;11.90;78.90
72814;DHT22;60945;48.516;-2.768;2023-05-10T00:36:10;11.80;79.00
72814;DHT22;60945;48.516;-2.768;2023-05-10T00:38:35;11.70;79.90
72814;DHT22;60945;48.516;-2.768;2023-05-10T00:41:01;11.60;80.80
72814;DHT22;60945;48.516;-2.768;2023-05-10T00:43:27;11.70;80.20
72814;DHT22;60945;48.516;-2.768;2023-05-10T00:45:53;11.70;79.70
72814;DHT22;60945;48.516;-2.768;2023-05-10T00:48:19;11.80;79.30
72814;DHT22;60945;48.516;-2.768;2023-05-10T00:50:45;11.80;79.40
72814;DHT22;60945;48.516;-2.768;2023-05-10T00:53:11;11.90;79.30
72814;DHT22;60945;48.516;-2.768;2023-05-10T00:55:37;11.90;78.70
72814;DHT22;60945;48.516;-2.768;2023-05-10T00:58:04;12.00;78.60
72814;DHT22;60945;48.516;-2.768;2023-05-10T01:00:29;12.00;79.00
72814;DHT22;60945;48.516;-2.768;2023-05-10T01:02:58;12.10;78.50
72814;DHT22;60945;48.516;-2.768;2023-05-10T01:05:24;12.00;78.80
72814;DHT22;60945;48.516;-2.768;2023-05-10T01:07:50;12.00;78.80
72814;DHT22;60945;48.516;-2.768;2023-05-10T01:10:16;12.10;78.90
72814;DHT22;60945;48.516;-2.768;2023-05-10T01:12:45;12.10;80.00
72814;DHT22;60945;48.516;-2.768;2023-05-10T01:15:12;12.10;80.70
72814;DHT22;60945;48.516;-2.768;2023-05-10T01:17:40;12.00;79.60
72814;DHT22;60945;48.516;-2.768;2023-05-10T01:20:07;12.10;79.50
72814;DHT22;60945;48.516;-2.768;2023-05-10T01:28:42;11.90;79.10
72814;DHT22;60945;48.516;-2.768;2023-05-10T01:34:12;11.40;81.30
72814;DHT22;60945;48.516;-2.768;2023-05-10T01:42:11;11.20;82.30
72814;DHT22;60945;48.516;-2.768;2023-05-10T01:44:57;11.30;82.50
72814;DHT22;60945;48.516;-2.768;2023-05-10T01:47:40;11.40;82.40
72814;DHT22;60945;48.516;-2.768;2023-05-10T01:50:17;11.40;82.10
72814;DHT22;60945;48.516;-2.768;2023-05-10T01:52:47;11.30;83.10
72814;DHT22;60945;48.516;-2.768;2023-05-10T01:55:16;11.20;83.30
72814;DHT22;60945;48.516;-2.768;2023-05-10T01:57:44;11.10;83.20
72814;DHT22;60945;48.516;-2.768;2023-05-10T02:00:12;11.00;83.90
72814;DHT22;60945;48.516;-2.768;2023-05-10T02:02:40;11.00;83.50
72814;DHT22;60945;48.516;-2.768;2023-05-10T02:05:08;11.00;83.40
72814;DHT22;60945;48.516;-2.768;2023-05-10T02:07:36;11.00;84.20
72814;DHT22;60945;48.516;-2.768;2023-05-10T02:10:06;11.00;84.40
72814;DHT22;60945;48.516;-2.768;2023-05-10T02:12:36;11.00;84.40
72814;DHT22;60945;48.516;-2.768;2023-05-10T02:15:04;10.90;85.00
72814;DHT22;60945;48.516;-2.768;2023-05-10T02:17:32;10.80;85.60
72814;DHT22;60945;48.516;-2.768;2023-05-10T02:19:59;10.90;85.10
72814;DHT22;60945;48.516;-2.768;2023-05-10T02:22:27;11.00;85.40
72814;DHT22;60945;48.516;-2.768;2023-05-10T02:24:55;11.30;84.30
72814;DHT22;60945;48.516;-2.768;2023-05-10T02:27:24;11.40;83.10
72814;DHT22;60945;48.516;-2.768;2023-05-10T02:29:51;11.50;83.30
72814;DHT22;60945;48.516;-2.768;2023-05-10T02:32:19;11.60;82.70
72814;DHT22;60945;48.516;-2.768;2023-05-10T02:34:45;11.60;82.80
72814;DHT22;60945;48.516;-2.768;2023-05-10T02:37:15;11.40;83.30
72814;DHT22;60945;48.516;-2.768;2023-05-10T02:39:41;11.40;83.70
72814;DHT22;60945;48.516;-2.768;2023-05-10T02:42:18;11.40;83.30
72814;DHT22;60945;48.516;-2.768;2023-05-10T02:44:48;11.50;82.90
72814;DHT22;60945;48.516;-2.768;2023-05-10T02:47:16;11.30;83.30
72814;DHT22;60945;48.516;-2.768;2023-05-10T02:49:42;11.20;84.40
72814;DHT22;60945;48.516;-2.768;2023-05-10T02:52:08;11.10;85.10
72814;DHT22;60945;48.516;-2.768;2023-05-10T02:54:43;11.10;85.20
72814;DHT22;60945;48.516;-2.768;2023-05-10T02:57:15;11.40;84.10
72814;DHT22;60945;48.516;-2.768;2023-05-10T02:59:41;11.50;83.80
72814;DHT22;60945;48.516;-2.768;2023-05-10T03:02:09;11.50;83.60
72814;DHT22;60945;48.516;-2.768;2023-05-10T03:04:35;11.50;83.50
72814;DHT22;60945;48.516;-2.768;2023-05-10T03:07:01;11.50;83.90
72814;DHT22;60945;48.516;-2.768;2023-05-10T03:09:27;11.60;82.80
72814;DHT22;60945;48.516;-2.768;2023-05-10T03:12:14;11.70;82.20
72814;DHT22;60945;48.516;-2.768;2023-05-10T03:14:57;11.80;82.00
72814;DHT22;60945;48.516;-2.768;2023-05-10T03:17:52;11.80;82.50
72814;DHT22;60945;48.516;-2.768;2023-05-10T03:20:26;11.80;82.00
72814;DHT22;60945;48.516;-2.768;2023-05-10T03:23:31;11.90;81.00
72814;DHT22;60945;48.516;-2.768;2023-05-10T03:25:59;11.90;81.20
72814;DHT22;60945;48.516;-2.768;2023-05-10T03:28:26;11.70;82.50
72814;DHT22;60945;48.516;-2.768;2023-05-10T03:30:55;11.70;83.10
72814;DHT22;60945;48.516;-2.768;2023-05-10T03:33:21;11.80;82.10
72814;DHT22;60945;48.516;-2.768;2023-05-10T03:35:47;11.90;81.50
72814;DHT22;60945;48.516;-2.768;2023-05-10T03:38:13;11.90;81.40
72814;DHT22;60945;48.516;-2.768;2023-05-10T03:40:39;11.80;82.20
72814;DHT22;60945;48.516;-2.768;2023-05-10T03:43:07;11.80;81.70
72814;DHT22;60945;48.516;-2.768;2023-05-10T03:45:33;11.90;82.30
72814;DHT22;60945;48.516;-2.768;2023-05-10T03:47:58;11.90;82.60
72814;DHT22;60945;48.516;-2.768;2023-05-10T03:50:24;11.80;82.30
72814;DHT22;60945;48.516;-2.768;2023-05-10T03:52:53;11.80;83.30
72814;DHT22;60945;48.516;-2.768;2023-05-10T03:55:18;11.90;82.50
72814;DHT22;60945;48.516;-2.768;2023-05-10T03:57:44;11.80;82.90
72814;DHT22;60945;48.516;-2.768;2023-05-10T04:00:10;11.80;83.50
72814;DHT22;60945;48.516;-2.768;2023-05-10T04:02:36;11.90;83.50
72814;DHT22;60945;48.516;-2.768;2023-05-10T04:05:02;11.80;83.50
72814;DHT22;60945;48.516;-2.768;2023-05-10T04:07:28;11.80;83.90
72814;DHT22;60945;48.516;-2.768;2023-05-10T04:09:53;11.80;83.50
72814;DHT22;60945;48.516;-2.768;2023-05-10T04:12:22;11.80;83.50
72814;DHT22;60945;48.516;-2.768;2023-05-10T04:14:47;11.90;83.60
72814;DHT22;60945;48.516;-2.768;2023-05-10T04:17:13;12.00;83.90
72814;DHT22;60945;48.516;-2.768;2023-05-10T04:19:41;12.00;83.20
72814;DHT22;60945;48.516;-2.768;2023-05-10T04:22:07;12.00;83.70
72814;DHT22;60945;48.516;-2.768;2023-05-10T04:24:32;12.00;83.60
72814;DHT22;60945;48.516;-2.768;2023-05-10T04:26:58;11.90;83.50
72814;DHT22;60945;48.516;-2.768;2023-05-10T04:29:24;11.80;83.70
72814;DHT22;60945;48.516;-2.768;2023-05-10T04:31:49;11.80;84.60
72814;DHT22;60945;48.516;-2.768;2023-05-10T04:34:16;11.80;84.00
72814;DHT22;60945;48.516;-2.768;2023-05-10T04:36:41;11.90;84.30
72814;DHT22;60945;48.516;-2.768;2023-05-10T04:39:07;11.80;84.10
72814;DHT22;60945;48.516;-2.768;2023-05-10T04:41:33;11.80;83.90
72814;DHT22;60945;48.516;-2.768;2023-05-10T04:43:59;11.80;84.20
72814;DHT22;60945;48.516;-2.768;2023-05-10T04:46:24;11.80;84.40
72814;DHT22;60945;48.516;-2.768;2023-05-10T04:48:50;11.80;84.00
72814;DHT22;60945;48.516;-2.768;2023-05-10T04:51:16;11.80;84.10
72814;DHT22;60945;48.516;-2.768;2023-05-10T04:53:41;11.80;84.40
72814;DHT22;60945;48.516;-2.768;2023-05-10T04:56:07;11.60;84.60
72814;DHT22;60945;48.516;-2.768;2023-05-10T04:58:32;11.50;85.60
72814;DHT22;60945;48.516;-2.768;2023-05-10T05:01:05;11.40;86.60
72814;DHT22;60945;48.516;-2.768;2023-05-10T05:03:31;11.30;86.60
72814;DHT22;60945;48.516;-2.768;2023-05-10T05:05:57;11.30;86.40
72814;DHT22;60945;48.516;-2.768;2023-05-10T05:08:23;11.40;86.70
72814;DHT22;60945;48.516;-2.768;2023-05-10T05:10:49;11.60;86.40
72814;DHT22;60945;48.516;-2.768;2023-05-10T05:13:15;11.80;85.10
72814;DHT22;60945;48.516;-2.768;2023-05-10T05:15:41;11.90;84.60
72814;DHT22;60945;48.516;-2.768;2023-05-10T05:18:07;12.00;84.30
72814;DHT22;60945;48.516;-2.768;2023-05-10T05:20:33;12.00;84.00
72814;DHT22;60945;48.516;-2.768;2023-05-10T05:22:59;12.00;84.00
72814;DHT22;60945;48.516;-2.768;2023-05-10T05:25:25;11.90;84.30
72814;DHT22;60945;48.516;-2.768;2023-05-10T05:27:51;11.90;84.50
72814;DHT22;60945;48.516;-2.768;2023-05-10T05:30:16;12.20;83.80
72814;DHT22;60945;48.516;-2.768;2023-05-10T05:32:45;12.40;82.70
72814;DHT22;60945;48.516;-2.768;2023-05-10T05:35:12;12.60;81.70
72814;DHT22;60945;48.516;-2.768;2023-05-10T05:37:38;12.70;81.70
72814;DHT22;60945;48.516;-2.768;2023-05-10T05:40:04;12.80;81.20
72814;DHT22;60945;48.516;-2.768;2023-05-10T05:42:31;12.80;81.40
72814;DHT22;60945;48.516;-2.768;2023-05-10T05:44:56;12.80;81.30
72814;DHT22;60945;48.516;-2.768;2023-05-10T05:47:22;12.70;81.90
72814;DHT22;60945;48.516;-2.768;2023-05-10T05:49:48;12.70;81.80
72814;DHT22;60945;48.516;-2.768;2023-05-10T05:52:13;12.60;82.30
72814;DHT22;60945;48.516;-2.768;2023-05-10T05:54:39;12.60;82.70
72814;DHT22;60945;48.516;-2.768;2023-05-10T05:57:05;12.60;83.10
72814;DHT22;60945;48.516;-2.768;2023-05-10T05:59:31;12.60;83.10
72814;DHT22;60945;48.516;-2.768;2023-05-10T06:01:56;12.70;83.90
72814;DHT22;60945;48.516;-2.768;2023-05-10T06:04:22;12.60;83.40
72814;DHT22;60945;48.516;-2.768;2023-05-10T06:06:48;12.50;83.60
72814;DHT22;60945;48.516;-2.768;2023-05-10T06:09:14;12.70;83.30
72814;DHT22;60945;48.516;-2.768;2023-05-10T06:11:39;12.50;83.60
72814;DHT22;60945;48.516;-2.768;2023-05-10T06:14:05;12.40;84.10
72814;DHT22;60945;48.516;-2.768;2023-05-10T06:16:32;12.50;84.60
72814;DHT22;60945;48.516;-2.768;2023-05-10T06:18:58;12.60;84.90
72814;DHT22;60945;48.516;-2.768;2023-05-10T06:21:24;12.60;84.40
72814;DHT22;60945;48.516;-2.768;2023-05-10T06:23:49;12.70;83.70
72814;DHT22;60945;48.516;-2.768;2023-05-10T06:26:15;12.80;83.70
72814;DHT22;60945;48.516;-2.768;2023-05-10T06:28:41;12.90;83.50
72814;DHT22;60945;48.516;-2.768;2023-05-10T06:31:06;13.00;83.40
72814;DHT22;60945;48.516;-2.768;2023-05-10T06:33:33;13.00;82.60
72814;DHT22;60945;48.516;-2.768;2023-05-10T06:35:58;13.20;82.30
72814;DHT22;60945;48.516;-2.768;2023-05-10T06:38:24;13.10;82.60
72814;DHT22;60945;48.516;-2.768;2023-05-10T06:40:50;13.30;82.30
72814;DHT22;60945;48.516;-2.768;2023-05-10T06:43:16;13.50;81.10
72814;DHT22;60945;48.516;-2.768;2023-05-10T06:45:41;13.70;80.90
72814;DHT22;60945;48.516;-2.768;2023-05-10T06:48:07;13.80;80.20
72814;DHT22;60945;48.516;-2.768;2023-05-10T06:50:33;13.80;79.30
72814;DHT22;60945;48.516;-2.768;2023-05-10T06:53:00;13.80;79.60
72814;DHT22;60945;48.516;-2.768;2023-05-10T06:55:28;13.80;79.20
72814;DHT22;60945;48.516;-2.768;2023-05-10T06:57:55;13.70;80.30
72814;DHT22;60945;48.516;-2.768;2023-05-10T07:00:21;13.60;80.60
72814;DHT22;60945;48.516;-2.768;2023-05-10T07:02:48;13.60;80.50
72814;DHT22;60945;48.516;-2.768;2023-05-10T07:05:13;13.90;80.10
72814;DHT22;60945;48.516;-2.768;2023-05-10T07:07:40;14.30;78.10
72814;DHT22;60945;48.516;-2.768;2023-05-10T07:10:06;14.50;76.60
72814;DHT22;60945;48.516;-2.768;2023-05-10T07:12:33;14.60;76.30
72814;DHT22;60945;48.516;-2.768;2023-05-10T07:14:58;14.60;76.90
72814;DHT22;60945;48.516;-2.768;2023-05-10T07:17:24;14.50;76.20
72814;DHT22;60945;48.516;-2.768;2023-05-10T07:19:50;14.60;76.20
72814;DHT22;60945;48.516;-2.768;2023-05-10T07:22:16;14.60;76.80
72814;DHT22;60945;48.516;-2.768;2023-05-10T07:24:42;14.70;76.30
72814;DHT22;60945;48.516;-2.768;2023-05-10T07:27:08;14.90;76.10
72814;DHT22;60945;48.516;-2.768;2023-05-10T07:29:34;14.60;76.10
72814;DHT22;60945;48.516;-2.768;2023-05-10T07:32:00;14.60;77.30
72814;DHT22;60945;48.516;-2.768;2023-05-10T07:34:26;14.60;76.60
72814;DHT22;60945;48.516;-2.768;2023-05-10T07:36:53;14.50;76.60
72814;DHT22;60945;48.516;-2.768;2023-05-10T07:39:20;14.40;76.50
72814;DHT22;60945;48.516;-2.768;2023-05-10T07:41:48;14.60;76.10
72814;DHT22;60945;48.516;-2.768;2023-05-10T07:44:14;15.00;75.10
72814;DHT22;60945;48.516;-2.768;2023-05-10T07:46:40;15.30;74.70
72814;DHT22;60945;48.516;-2.768;2023-05-10T07:49:05;15.60;73.00
72814;DHT22;60945;48.516;-2.768;2023-05-10T07:51:31;15.30;72.50
72814;DHT22;60945;48.516;-2.768;2023-05-10T07:53:57;15.20;73.40
72814;DHT22;60945;48.516;-2.768;2023-05-10T07:58:49;15.10;74.80
72814;DHT22;60945;48.516;-2.768;2023-05-10T08:01:14;14.90;75.80
72814;DHT22;60945;48.516;-2.768;2023-05-10T08:03:40;14.80;75.80
72814;DHT22;60945;48.516;-2.768;2023-05-10T08:06:06;14.80;77.00
72814;DHT22;60945;48.516;-2.768;2023-05-10T08:08:31;15.20;76.80
72814;DHT22;60945;48.516;-2.768;2023-05-10T08:10:57;15.20;75.70
72814;DHT22;60945;48.516;-2.768;2023-05-10T08:13:23;15.90;74.80
72814;DHT22;60945;48.516;-2.768;2023-05-10T08:15:48;16.10;73.80
72814;DHT22;60945;48.516;-2.768;2023-05-10T08:18:14;16.10;72.20
72814;DHT22;60945;48.516;-2.768;2023-05-10T08:20:40;16.20;72.80
72814;DHT22;60945;48.516;-2.768;2023-05-10T08:23:05;16.10;73.30
72814;DHT22;60945;48.516;-2.768;2023-05-10T08:25:31;16.10;72.90
72814;DHT22;60945;48.516;-2.768;2023-05-10T08:27:57;16.00;71.80
72814;DHT22;60945;48.516;-2.768;2023-05-10T08:30:23;16.10;72.30
72814;DHT22;60945;48.516;-2.768;2023-05-10T08:32:49;16.10;71.60
72814;DHT22;60945;48.516;-2.768;2023-05-10T08:35:15;16.50;71.80
72814;DHT22;60945;48.516;-2.768;2023-05-10T08:37:41;16.80;69.40
72814;DHT22;60945;48.516;-2.768;2023-05-10T08:40:08;17.40;67.90
72814;DHT22;60945;48.516;-2.768;2023-05-10T08:42:43;18.00;66.00
72814;DHT22;60945;48.516;-2.768;2023-05-10T08:45:13;18.30;63.70
72814;DHT22;60945;48.516;-2.768;2023-05-10T08:47:46;18.10;64.00
72814;DHT22;60945;48.516;-2.768;2023-05-10T08:50:15;18.50;63.00
72814;DHT22;60945;48.516;-2.768;2023-05-10T08:52:42;18.70;62.10
72814;DHT22;60945;48.516;-2.768;2023-05-10T08:55:08;18.50;60.90
72814;DHT22;60945;48.516;-2.768;2023-05-10T08:57:35;18.60;60.20
72814;DHT22;60945;48.516;-2.768;2023-05-10T09:00:02;19.20;58.60
72814;DHT22;60945;48.516;-2.768;2023-05-10T09:02:27;19.80;57.90
72814;DHT22;60945;48.516;-2.768;2023-05-10T09:04:53;19.60;56.70
72814;DHT22;60945;48.516;-2.768;2023-05-10T09:07:20;19.70;57.50
72814;DHT22;60945;48.516;-2.768;2023-05-10T09:09:46;19.80;56.80
72814;DHT22;60945;48.516;-2.768;2023-05-10T09:12:13;19.80;56.20
72814;DHT22;60945;48.516;-2.768;2023-05-10T09:14:41;19.90;55.20
72814;DHT22;60945;48.516;-2.768;2023-05-10T09:17:07;20.40;55.20
72814;DHT22;60945;48.516;-2.768;2023-05-10T09:19:34;21.10;53.10
72814;DHT22;60945;48.516;-2.768;2023-05-10T09:22:00;21.50;51.40
72814;DHT22;60945;48.516;-2.768;2023-05-10T09:24:29;22.20;51.70
72814;DHT22;60945;48.516;-2.768;2023-05-10T09:26:57;22.10;51.00
72814;DHT22;60945;48.516;-2.768;2023-05-10T09:29:26;22.10;50.00
72814;DHT22;60945;48.516;-2.768;2023-05-10T09:31:57;21.40;49.20
72814;DHT22;60945;48.516;-2.768;2023-05-10T09:34:39;21.60;50.90
72814;DHT22;60945;48.516;-2.768;2023-05-10T09:37:09;21.60;50.50
72814;DHT22;60945;48.516;-2.768;2023-05-10T09:39:37;21.80;51.70
72814;DHT22;60945;48.516;-2.768;2023-05-10T09:42:08;21.20;51.70
72814;DHT22;60945;48.516;-2.768;2023-05-10T09:44:34;20.90;51.30
72814;DHT22;60945;48.516;-2.768;2023-05-10T09:47:02;20.90;53.10
72814;DHT22;60945;48.516;-2.768;2023-05-10T09:49:33;21.40;50.80
72814;DHT22;60945;48.516;-2.768;2023-05-10T09:52:07;20.70;52.10
72814;DHT22;60945;48.516;-2.768;2023-05-10T09:54:33;20.30;53.10
72814;DHT22;60945;48.516;-2.768;2023-05-10T09:56:59;20.60;52.00
72814;DHT22;60945;48.516;-2.768;2023-05-10T09:59:27;21.20;50.60
72814;DHT22;60945;48.516;-2.768;2023-05-10T10:01:56;21.40;51.10
72814;DHT22;60945;48.516;-2.768;2023-05-10T10:04:22;22.10;48.90
72814;DHT22;60945;48.516;-2.768;2023-05-10T10:06:59;21.30;49.50
72814;DHT22;60945;48.516;-2.768;2023-05-10T10:09:26;20.90;50.40
72814;DHT22;60945;48.516;-2.768;2023-05-10T10:11:52;21.30;51.20
72814;DHT22;60945;48.516;-2.768;2023-05-10T10:14:22;20.30;54.20
72814;DHT22;60945;48.516;-2.768;2023-05-10T10:16:49;20.10;54.30
72814;DHT22;60945;48.516;-2.768;2023-05-10T10:19:20;21.00;53.20
72814;DHT22;60945;48.516;-2.768;2023-05-10T10:21:47;23.50;48.10
72814;DHT22;60945;48.516;-2.768;2023-05-10T10:24:12;23.20;46.80
72814;DHT22;60945;48.516;-2.768;2023-05-10T10:26:38;22.40;49.00
72814;DHT22;60945;48.516;-2.768;2023-05-10T10:31:45;23.30;45.70
72814;DHT22;60945;48.516;-2.768;2023-05-10T10:34:31;22.50;48.00
72814;DHT22;60945;48.516;-2.768;2023-05-10T10:36:58;28.20;39.10
72814;DHT22;60945;48.516;-2.768;2023-05-10T10:39:31;32.10;33.10
72814;DHT22;60945;48.516;-2.768;2023-05-10T10:41:58;33.00;30.90
72814;DHT22;60945;48.516;-2.768;2023-05-10T10:54:50;28.90;34.20
72814;DHT22;60945;48.516;-2.768;2023-05-10T10:57:18;28.60;34.60
72814;DHT22;60945;48.516;-2.768;2023-05-10T10:59:44;27.00;37.10
72814;DHT22;60945;48.516;-2.768;2023-05-10T11:02:31;25.80;38.20
72814;DHT22;60945;48.516;-2.768;2023-05-10T11:04:56;29.70;36.10
72814;DHT22;60945;48.516;-2.768;2023-05-10T11:07:21;34.10;28.30
72814;DHT22;60945;48.516;-2.768;2023-05-10T11:09:48;30.90;31.20
72814;DHT22;60945;48.516;-2.768;2023-05-10T11:12:14;27.60;35.10
72814;DHT22;60945;48.516;-2.768;2023-05-10T11:14:40;25.30;39.20
72814;DHT22;60945;48.516;-2.768;2023-05-10T11:17:24;24.10;40.90
72814;DHT22;60945;48.516;-2.768;2023-05-10T11:20:10;24.30;41.70
72814;DHT22;60945;48.516;-2.768;2023-05-10T11:22:52;25.20;38.60
72814;DHT22;60945;48.516;-2.768;2023-05-10T11:25:18;23.60;41.70
72814;DHT22;60945;48.516;-2.768;2023-05-10T11:27:43;22.10;45.70
72814;DHT22;60945;48.516;-2.768;2023-05-10T11:30:11;20.70;49.60
72814;DHT22;60945;48.516;-2.768;2023-05-10T11:32:40;20.10;52.40
72814;DHT22;60945;48.516;-2.768;2023-05-10T11:35:10;20.30;52.50
72814;DHT22;60945;48.516;-2.768;2023-05-10T11:37:38;21.20;51.40
72814;DHT22;60945;48.516;-2.768;2023-05-10T11:40:08;24.80;45.30
72814;DHT22;60945;48.516;-2.768;2023-05-10T11:42:37;26.50;39.70
72814;DHT22;60945;48.516;-2.768;2023-05-10T11:45:03;29.80;34.90
72814;DHT22;60945;48.516;-2.768;2023-05-10T11:47:28;30.20;34.10
72814;DHT22;60945;48.516;-2.768;2023-05-10T11:49:54;28.80;34.80
72814;DHT22;60945;48.516;-2.768;2023-05-10T11:52:20;26.60;38.10
72814;DHT22;60945;48.516;-2.768;2023-05-10T11:54:51;25.60;40.00
72814;DHT22;60945;48.516;-2.768;2023-05-10T11:57:21;25.50;39.20
72814;DHT22;60945;48.516;-2.768;2023-05-10T11:59:54;26.70;37.00
72814;DHT22;60945;48.516;-2.768;2023-05-10T12:02:23;30.20;32.10
72814;DHT22;60945;48.516;-2.768;2023-05-10T12:04:50;30.40;31.30
72814;DHT22;60945;48.516;-2.768;2023-05-10T12:07:16;32.00;29.50
72814;DHT22;60945;48.516;-2.768;2023-05-10T12:09:48;27.90;34.80
72814;DHT22;60945;48.516;-2.768;2023-05-10T12:12:27;25.10;37.50
72814;DHT22;60945;48.516;-2.768;2023-05-10T12:14:52;23.00;41.00
72814;DHT22;60945;48.516;-2.768;2023-05-10T12:17:18;22.60;44.50
72814;DHT22;60945;48.516;-2.768;2023-05-10T12:19:43;22.40;43.40
72814;DHT22;60945;48.516;-2.768;2023-05-10T12:22:10;22.50;43.40
72814;DHT22;60945;48.516;-2.768;2023-05-10T12:24:39;22.30;43.00
72814;DHT22;60945;48.516;-2.768;2023-05-10T12:27:05;22.40;43.50
72814;DHT22;60945;48.516;-2.768;2023-05-10T12:29:33;23.70;41.60
72814;DHT22;60945;48.516;-2.768;2023-05-10T12:31:59;24.50;40.70
72814;DHT22;60945;48.516;-2.768;2023-05-10T12:34:33;24.40;40.00
72814;DHT22;60945;48.516;-2.768;2023-05-10T12:36:59;24.50;39.70
72814;DHT22;60945;48.516;-2.768;2023-05-10T12:39:25;24.50;39.00
72814;DHT22;60945;48.516;-2.768;2023-05-10T12:41:51;24.50;39.30
72814;DHT22;60945;48.516;-2.768;2023-05-10T12:44:18;25.00;38.90
72814;DHT22;60945;48.516;-2.768;2023-05-10T12:46:43;25.50;36.50
72814;DHT22;60945;48.516;-2.768;2023-05-10T12:49:09;24.70;38.00
72814;DHT22;60945;48.516;-2.768;2023-05-10T12:51:35;26.00;35.50
72814;DHT22;60945;48.516;-2.768;2023-05-10T12:54:02;24.50;39.00
72814;DHT22;60945;48.516;-2.768;2023-05-10T12:56:28;23.00;41.90
72814;DHT22;60945;48.516;-2.768;2023-05-10T12:58:56;22.50;41.00
72814;DHT22;60945;48.516;-2.768;2023-05-10T13:01:22;21.60;44.50
72814;DHT22;60945;48.516;-2.768;2023-05-10T13:03:48;20.80;44.60
72814;DHT22;60945;48.516;-2.768;2023-05-10T13:06:13;20.70;46.60
72814;DHT22;60945;48.516;-2.768;2023-05-10T13:08:39;20.90;46.10
72814;DHT22;60945;48.516;-2.768;2023-05-10T13:11:05;22.30;43.10
72814;DHT22;60945;48.516;-2.768;2023-05-10T13:13:31;22.90;41.90
72814;DHT22;60945;48.516;-2.768;2023-05-10T13:15:57;22.00;43.00
72814;DHT22;60945;48.516;-2.768;2023-05-10T13:18:23;21.40;44.50
72814;DHT22;60945;48.516;-2.768;2023-05-10T13:20:49;20.90;44.60
72814;DHT22;60945;48.516;-2.768;2023-05-10T13:23:17;20.90;44.50
72814;DHT22;60945;48.516;-2.768;2023-05-10T13:25:43;21.80;43.80
72814;DHT22;60945;48.516;-2.768;2023-05-10T13:28:08;23.80;40.00
72814;DHT22;60945;48.516;-2.768;2023-05-10T13:30:34;26.70;34.70
72814;DHT22;60945;48.516;-2.768;2023-05-10T13:33:00;25.40;36.90
72814;DHT22;60945;48.516;-2.768;2023-05-10T13:35:25;25.30;37.20
72814;DHT22;60945;48.516;-2.768;2023-05-10T13:37:51;31.00;31.30
72814;DHT22;60945;48.516;-2.768;2023-05-10T13:40:18;32.20;28.30
72814;DHT22;60945;48.516;-2.768;2023-05-10T13:42:44;28.90;31.20
72814;DHT22;60945;48.516;-2.768;2023-05-10T13:45:10;27.50;34.20
72814;DHT22;60945;48.516;-2.768;2023-05-10T13:47:37;25.30;36.40
72814;DHT22;60945;48.516;-2.768;2023-05-10T13:50:02;23.80;39.20
72814;DHT22;60945;48.516;-2.768;2023-05-10T13:52:28;22.90;39.90
72814;DHT22;60945;48.516;-2.768;2023-05-10T13:54:54;22.60;41.90
72814;DHT22;60945;48.516;-2.768;2023-05-10T13:57:21;25.20;36.70
72814;DHT22;60945;48.516;-2.768;2023-05-10T13:59:46;29.50;31.30
72814;DHT22;60945;48.516;-2.768;2023-05-10T14:02:12;27.90;33.30
72814;DHT22;60945;48.516;-2.768;2023-05-10T14:04:40;25.60;35.60
72814;DHT22;60945;48.516;-2.768;2023-05-10T14:07:06;24.20;37.50
72814;DHT22;60945;48.516;-2.768;2023-05-10T14:09:31;22.90;41.20
72814;DHT22;60945;48.516;-2.768;2023-05-10T14:11:57;22.30;41.40
72814;DHT22;60945;48.516;-2.768;2023-05-10T14:14:23;22.60;40.00
72814;DHT22;60945;48.516;-2.768;2023-05-10T14:16:48;23.80;39.60
72814;DHT22;60945;48.516;-2.768;2023-05-10T14:19:14;24.70;36.50
72814;DHT22;60945;48.516;-2.768;2023-05-10T14:21:39;26.40;34.30
72814;DHT22;60945;48.516;-2.768;2023-05-10T14:24:05;26.60;33.40
72814;DHT22;60945;48.516;-2.768;2023-05-10T14:26:32;25.30;35.90
72814;DHT22;60945;48.516;-2.768;2023-05-10T14:28:59;23.70;38.40
72814;DHT22;60945;48.516;-2.768;2023-05-10T14:31:25;22.80;39.00
72814;DHT22;60945;48.516;-2.768;2023-05-10T14:33:51;22.10;40.60
72814;DHT22;60945;48.516;-2.768;2023-05-10T14:36:17;21.80;41.20
72814;DHT22;60945;48.516;-2.768;2023-05-10T14:38:43;21.30;42.20
72814;DHT22;60945;48.516;-2.768;2023-05-10T14:41:08;21.10;43.10
72814;DHT22;60945;48.516;-2.768;2023-05-10T14:43:34;20.80;43.10
72814;DHT22;60945;48.516;-2.768;2023-05-10T14:46:00;20.80;44.00
72814;DHT22;60945;48.516;-2.768;2023-05-10T14:48:26;20.40;44.70
72814;DHT22;60945;48.516;-2.768;2023-05-10T14:50:52;21.10;43.80
72814;DHT22;60945;48.516;-2.768;2023-05-10T14:53:18;29.40;31.80
72814;DHT22;60945;48.516;-2.768;2023-05-10T14:55:43;34.40;26.50
72814;DHT22;60945;48.516;-2.768;2023-05-10T14:58:09;37.00;23.40
72814;DHT22;60945;48.516;-2.768;2023-05-10T15:00:35;31.30;27.30
72814;DHT22;60945;48.516;-2.768;2023-05-10T15:03:01;26.40;32.90
72814;DHT22;60945;48.516;-2.768;2023-05-10T15:05:27;23.80;37.60
72814;DHT22;60945;48.516;-2.768;2023-05-10T15:07:53;26.40;35.40
72814;DHT22;60945;48.516;-2.768;2023-05-10T15:10:18;27.20;35.10
72814;DHT22;60945;48.516;-2.768;2023-05-10T15:12:44;32.20;28.20
72814;DHT22;60945;48.516;-2.768;2023-05-10T15:15:10;34.00;26.10
72814;DHT22;60945;48.516;-2.768;2023-05-10T15:17:35;34.60;26.20
72814;DHT22;60945;48.516;-2.768;2023-05-10T15:20:02;35.30;24.60
72814;DHT22;60945;48.516;-2.768;2023-05-10T15:22:30;34.80;25.00
72814;DHT22;60945;48.516;-2.768;2023-05-10T15:24:57;34.60;25.30
72814;DHT22;60945;48.516;-2.768;2023-05-10T15:27:24;34.30;25.10
72814;DHT22;60945;48.516;-2.768;2023-05-10T15:29:50;34.40;24.60
72814;DHT22;60945;48.516;-2.768;2023-05-10T15:32:15;31.40;27.60
72814;DHT22;60945;48.516;-2.768;2023-05-10T15:34:41;30.50;29.70
72814;DHT22;60945;48.516;-2.768;2023-05-10T15:37:07;32.60;28.00
72814;DHT22;60945;48.516;-2.768;2023-05-10T15:39:32;30.70;28.80
72814;DHT22;60945;48.516;-2.768;2023-05-10T15:41:58;26.80;33.60
72814;DHT22;60945;48.516;-2.768;2023-05-10T15:44:24;24.90;36.10
72814;DHT22;60945;48.516;-2.768;2023-05-10T15:46:52;26.30;35.80